Mineral Point, WI (53565)

7:03 PM CDT on September 30, 2016 (GMT -0500)
KWIMINER1 | | Change Station

Elev 1066 ft 42.85 °N, 90.18 °W | Updated 10 minutes ago

Overcast
Overcast
59.0 °F
Feels Like 59.0 °F
N
0.0
Wind Variable Wind from NE
Gusts 0.0 mph

Today
High -- | Low -- °F
--% Chance of Precip.
Yesterday
High -- | Low -- °F
Precip. -- in
Pressure 30.16 in
Visibility 4.0 miles
Clouds Mostly Cloudy 400 ft
Overcast 900 ft
Dew Point 58 °F
Humidity 97%
Rainfall 0.00 in
Snow Depth Not available.
6:57 AM 6:42 PM
New Moon, 0% visible
METAR KMRJ 302355Z AUTO 02006KT 4SM BKN004 OVC009 16/15 A3016 RMK AO2 PWINO
Pressure 30.16 in
Visibility 4.0 miles
Clouds Mostly Cloudy 400 ft
Overcast 900 ft
Dew Point 58 °F
Humidity 97%
Rainfall 0.00 in
Snow Depth Not available.
6:57 AM 6:42 PM
New Moon, 0% visible
METAR KMRJ 302355Z AUTO 02006KT 4SM BKN004 OVC009 16/15 A3016 RMK AO2 PWINO

10-Day Weather Forecast

Almanac

Astronomy

Sep. 30, 2016 Rise Set
Actual Time
Civil Twilight
Nautical Twilight
Astronomical Twilight
Moon
Length of Visible Light
Length of Day
Tomorrow will be .
, % of the Moon is Illuminated

Today's Extremes

State Highs State Lows

Community

WunderPhotos

Upload Photos

1,942,829 photos uploaded!

WunderBlog® & News

Nearby

Air Quality

  Air Quality AQ Index Pollutant
Not available.

Snow Depth

Station Depth Elevation

Earthquake Activity

City Distance Mag. Time & Date
Minimum magnitude displayed is 2.5.

Coastal Water Temperatures

Place Temperature

Stations

Nearby Weather Stations

Station Location Temp. Windchill Dew Point Humidity Wind Precip. Elev Updated Type
                   

Watches & Warnings

There are currently no watches in effect.